HOURLY OBS INDEX

004

Pilbara - De Grey

BEDOUT ISLAND

Site: 004100
Alt: 8.6m
96km NNE of PORT HEDLAND


  Time     Wind        Temp  DP   Baro     Rain since   Rain past  Vis(m), Cloud(base in m), Weather
  local        km/h                         9am  last   hr   10m    
Mon 09:00  --- 48/ 56  24.1 14.5  1017.8   ----  ----  ----  ----   ----- 
Mon 10:00  --- 45/ 50  24.4 14.2  1017.6   ----  ----  ----  ----   ----- 
Mon 11:00  --- 41/ 48  24.6 14.7  1017.1   ----  ----  ----  ----   ----- 
Mon 12:00  --- 41/ 48  24.4 15.6  1016.1   ----  ----  ----  ----   ----- 
Mon 13:00  --- 35/ 41  24.3 15.0  1015.5   ----  ----  ----  ----   ----- 
Mon 14:00  --- 33/ 37  24.4 15.3  1015.2   ----  ----  ----  ----   ----- 

KARRATHA AERO

Site: 004083
Alt: 5.3m
9km WNW of KARRATHA


  Time     Wind        Temp  DP   Baro     Rain since   Rain past  Vis(m), Cloud(base in m), Weather
  local        km/h                         9am  last   hr   10m    
Mon 09:00    E 24/ 32  21.6  7.4  1018.2    0.0   0.0   0.0   0.0   10000 
Mon 09:30    E 28/ 33  22.5  9.0  1018.2    0.0   0.0   0.0   0.0   10000 
Mon 10:00    E 30/ 37  23.3  9.7  1018.0    0.0   0.0   0.0   0.0   10000 
Mon 10:30    E 28/ 33  23.7 10.0  1018.0    0.0   0.0   0.0   0.0   10000 
Mon 11:00    E 26/ 33  24.3 10.6  1017.9    0.0   0.0   0.0   0.0   10000 
Mon 11:30  ENE 26/ 32  24.8 12.4  1017.8    0.0   0.0   0.0   0.0   10000 
Mon 12:00  ENE 28/ 35  24.5 12.1  1016.9    0.0   0.0   0.0   0.0   10000 
Mon 12:30  ENE 30/ 35  24.9 13.5  1016.5    0.0   0.0   0.0   0.0   10000 
Mon 13:00  ENE 28/ 35  24.9 14.4  1016.0    0.0   0.0   0.0   0.0   10000 
Mon 13:30  ENE 28/ 33  24.5 14.3  1015.7    0.0   0.0   0.0   0.0   10000 
Mon 14:00  ENE 24/ 32  24.2 15.7  1015.5    0.0   0.0   0.0   0.0   10000 

LEGENDRE ISLAND

Site: 004095
Alt: 29.0m
41km N of KARRATHA


  Time     Wind        Temp  DP   Baro     Rain since   Rain past  Vis(m), Cloud(base in m), Weather
  local        km/h                         9am  last   hr   10m    
Mon 09:00  ------/---  24.3 18.2  1018.2   ----  ----  ----  ----   ----- 
Mon 09:30  ------/---  24.7 18.6  1018.2   ----  ----  ----  ----   ----- 
Mon 10:00  ------/---  24.8 18.7  1018.0   ----  ----  ----  ----   ----- 
Mon 10:30  ------/---  24.9 18.8  1017.8   ----  ----  ----  ----   ----- 
Mon 11:00  ------/---  24.8 18.5  1017.9   ----  ----  ----  ----   ----- 
Mon 11:30  ------/---  25.0 18.2  1017.6   ----  ----  ----  ----   ----- 
Mon 12:00  ------/---  24.9 18.4  1017.1   ----  ----  ----  ----   ----- 
Mon 12:30  ------/---  24.6 18.1  1016.5   ----  ----  ----  ----   ----- 
Mon 13:00  ------/---  24.8 18.5  1016.1   ----  ----  ----  ----   ----- 
Mon 13:30  ------/---  24.9 18.8  1015.8   ----  ----  ----  ----   ----- 
Mon 14:00  ------/---  24.4 19.0  1015.6   ----  ----  ----  ----   ----- 

MANDORA

Site: 004019
Alt: 7.5m
243km ENE of PORT HEDLAND


  Time     Wind        Temp  DP   Baro     Rain since   Rain past  Vis(m), Cloud(base in m), Weather
  local        km/h                         9am  last   hr   10m    
Mon 09:00    E 17/ 28  22.1  2.2  1018.9    0.0   0.0   0.0   0.0   ----- 
Mon 09:30    E 19/ 32  22.9  3.4  1018.8    0.0   0.0   0.0   0.0   ----- 
Mon 10:00    E 19/ 28  23.7  3.1  1018.6    0.0   0.0   0.0   0.0   ----- 
Mon 10:30    E 19/ 30  24.5  2.6  1018.1    0.0   0.0   0.0   0.0   ----- 
Mon 11:00    E 17/ 30  25.9  3.2  1017.7    0.0   0.0   0.0   0.0   ----- 
Mon 11:30    E 17/ 32  26.4  3.0  1016.9    0.0   0.0   0.0   0.0   ----- 
Mon 12:00  ESE 17/ 30  27.1  2.9  1016.4    0.0   0.0   0.0   0.0   ----- 
Mon 12:30  ESE 17/ 26  27.9  3.6  1015.8    0.0   0.0   0.0   0.0   ----- 
Mon 13:00    E 13/ 22  28.7  2.8  1015.3    0.0   0.0   0.0   0.0   ----- 
Mon 13:30    E 15/ 24  29.2  2.5  1014.9    0.0   0.0   0.0   0.0   ----- 
Mon 14:00  ENE 13/ 22  29.1  2.4  1014.7    0.0   0.0   0.0   0.0   ----- 

MARBLE BAR

Site: 004106
Alt: 182.3m
153km SE of PORT HEDLAND


  Time     Wind        Temp  DP   Baro     Rain since   Rain past  Vis(m), Cloud(base in m), Weather
  local        km/h                         9am  last   hr   10m    
Mon 09:00    E 15/ 19  20.6  0.4  1021.0    0.0   0.0   0.0   0.0   ----- 
Mon 09:30  ENE 15/ 22  22.1  0.6  1020.8    0.0   0.0   0.0   0.0   ----- 
Mon 10:00  ENE 15/ 24  23.4  0.5  1020.5    0.0   0.0   0.0   0.0   ----- 
Mon 10:30  ENE 19/ 26  24.0  0.4  1020.0    0.0   0.0   0.0   0.0   ----- 
Mon 11:00  ENE 19/ 28  24.6  0.2  1019.6    0.0   0.0   0.0   0.0   ----- 
Mon 11:30  ENE 17/ 26  25.7  0.4  1018.8    0.0   0.0   0.0   0.0   ----- 
Mon 12:00    E 17/ 32  25.9 -0.2  1018.2    0.0   0.0   0.0   0.0   ----- 
Mon 12:30    E 13/ 20  26.3 -0.7  1017.4    0.0   0.0   0.0   0.0   ----- 
Mon 13:00  ENE  9/ 17  26.7 -0.3  1017.0    0.0   0.0   0.0   0.0   ----- 
Mon 13:30    E 11/ 17  27.3 -0.7  1016.8    0.0   0.0   0.0   0.0   ----- 
Mon 14:00  ESE 13/ 20  27.1 -0.9  1016.8    0.0   0.0   0.0   0.0   ----- 

PORT HEDLAND AIRPORT

Site: 004032
Alt: 6.4m
8km SSE of PORT HEDLAND


  Time     Wind        Temp  DP   Baro     Rain since   Rain past  Vis(m), Cloud(base in m), Weather
  local        km/h                         9am  last   hr   10m    
Mon 09:00    E 33/ 45  23.0  1.4  1019.1    0.0   0.0  ----   0.0   10000 
Mon 09:30  ENE 35/ 45  23.8  1.4  1018.9    0.0   0.0   0.0   0.0   10000 
Mon 10:00  ENE 33/ 45  24.3  3.0  1018.5    0.0   0.0   0.0   0.0   10000 
Mon 10:30  ENE 33/ 43  25.4  3.4  1018.2    0.0   0.0   0.0   0.0   10000 
Mon 11:00  ENE 30/ 41  25.8  3.7  1018.0    0.0   0.0   0.0   0.0   10000 
Mon 11:30   NE 26/ 35  26.2  3.4  1017.4    0.0   0.0   0.0   0.0   10000 
Mon 12:00   NE 26/ 33  27.5  3.9  1016.8    0.0   0.0   0.0   0.0   10000 
Mon 12:30   NE 28/ 33  27.9  3.6  1016.3    0.0   0.0   0.0   0.0   10000 
Mon 13:00  NNE 24/ 30  26.5  8.0  1016.0    0.0   0.0   0.0   0.0   10000 
Mon 13:30  NNE 24/ 28  26.1  9.4  1015.6    0.0   0.0   0.0   0.0   10000 
Mon 14:00  NNE 28/ 33  25.4 10.8  1015.7    0.0   0.0   0.0   0.0   10000 

ROEBOURNE AERO

Site: 004090
Alt: 10.7m
31km E of KARRATHA


  Time     Wind        Temp  DP   Baro     Rain since   Rain past  Vis(m), Cloud(base in m), Weather
  local        km/h                         9am  last   hr   10m    
Mon 09:00    E 28/ 35  22.5  2.1  1019.2    0.0   0.0   0.0   0.0   ----- 
Mon 09:30    E 28/ 37  23.4  2.8  1019.2    0.0   0.0   0.0   0.0   ----- 
Mon 10:00    E 32/ 43  23.6  4.5  1019.0    0.0   0.0   0.0   0.0   ----- 
Mon 10:30    E 30/ 37  23.8  5.2  1018.8    0.0   0.0   0.0   0.0   ----- 
Mon 11:00  ENE 30/ 37  24.4  5.2  1018.6    0.0   0.0   0.0   0.0   ----- 
Mon 11:30  ENE 30/ 37  25.0  4.7  1018.3    0.0   0.0   0.0   0.0   ----- 
Mon 12:00  ENE 26/ 35  25.7  6.8  1018.1    0.0   0.0   0.0   0.0   ----- 
Mon 12:30  ENE 33/ 45  25.6  7.2  1017.2    0.0   0.0   0.0   0.0   ----- 
Mon 13:00   NE 35/ 45  25.9  7.0  1016.9    0.0   0.0   0.0   0.0   ----- 
Mon 13:30   NE 35/ 45  26.0  5.6  1016.4    0.0   0.0   0.0   0.0   ----- 
Mon 14:00   NE 32/ 43  25.8  7.9  1016.2    0.0   0.0   0.0   0.0   -----